createdAt,value
2017-05-18T17:24:08.419Z,10.20
2017-05-18T17:31:28.079Z,11.68
2017-05-18T17:33:55.035Z,12.50
2017-05-18T17:36:22.004Z,13.28
2017-05-18T17:38:48.998Z,11.42
2017-05-18T17:44:55.768Z,12.10
2017-05-18T17:47:32.167Z,11.17
2017-05-18T17:48:29.147Z,9.23
2017-05-18T17:49:26.107Z,8.68
2017-05-18T17:50:23.332Z,6.55
2017-05-18T17:51:20.314Z,6.25
2017-05-18T17:52:17.267Z,5.88
2017-05-18T17:53:14.231Z,5.65
2017-05-18T17:54:11.209Z,6.02
2017-05-18T17:55:08.194Z,6.90
2017-05-18T17:56:05.166Z,6.30
2017-05-18T17:57:02.128Z,5.83
2017-05-18T17:57:59.127Z,6.23
2017-05-18T17:58:56.099Z,6.30
2017-05-18T17:59:53.055Z,6.00
2017-05-18T18:00:50.027Z,5.93
2017-05-18T18:01:47.031Z,6.33
2017-05-18T18:02:44.016Z,9.67
2017-05-18T18:03:40.981Z,9.77
2017-05-18T18:04:37.932Z,9.63
2017-05-18T18:05:34.912Z,10.88
2017-05-18T18:06:31.907Z,10.77
2017-05-18T18:07:28.866Z,10.77
2017-05-18T18:08:25.833Z,9.20
2017-05-18T18:09:22.817Z,10.17
2017-05-18T18:10:19.802Z,10.30
2017-05-18T18:11:16.759Z,10.75
2017-05-18T18:12:13.720Z,10.45
2017-05-18T18:13:10.741Z,8.70
2017-05-18T18:14:07.691Z,7.44
2017-05-18T18:15:04.644Z,5.92
2017-05-18T18:16:01.622Z,5.43
2017-05-18T18:16:58.596Z,6.45
2017-05-18T18:17:55.563Z,5.77
2017-05-18T18:18:52.565Z,4.38
2017-05-18T18:19:49.549Z,4.75
2017-05-18T18:20:46.514Z,4.28
2017-05-18T18:21:43.496Z,5.02
2017-05-18T18:22:40.458Z,4.30
2017-05-18T18:23:37.432Z,4.80
2017-05-18T18:24:34.427Z,4.52
2017-05-18T18:25:31.387Z,4.90
2017-05-18T18:26:28.346Z,5.20
2017-05-18T18:27:25.302Z,5.08
2017-05-18T18:28:22.275Z,4.47
2017-05-18T18:29:19.244Z,4.63
2017-05-18T18:30:16.251Z,4.65
2017-05-18T18:31:13.485Z,4.52
2017-05-18T18:32:10.439Z,4.92
2017-05-18T18:33:07.417Z,4.58
2017-05-18T18:34:04.371Z,4.92
2017-05-18T18:35:01.348Z,4.88
2017-05-18T18:35:58.322Z,4.47
2017-05-18T18:36:55.531Z,4.40
2017-05-18T18:37:52.483Z,4.67
2017-05-18T18:38:50.475Z,4.73
2017-05-18T18:39:47.423Z,4.50
2017-05-18T18:40:44.390Z,4.53
2017-05-18T18:41:41.367Z,4.52
2017-05-18T18:42:38.315Z,4.75
2017-05-18T18:43:35.283Z,5.13
2017-05-18T18:44:32.486Z,5.22
2017-05-18T18:45:29.451Z,5.08
2017-05-18T18:46:26.425Z,4.73
2017-05-18T18:47:23.410Z,4.67
2017-05-18T18:48:20.382Z,4.70
2017-05-18T18:49:17.365Z,4.90
2017-05-18T18:50:14.319Z,4.83
2017-05-18T18:51:11.308Z,5.42
2017-05-18T18:52:08.269Z,4.92
2017-05-18T18:53:05.240Z,5.00
2017-05-18T18:54:02.216Z,4.60
2017-05-18T18:54:59.159Z,4.35
2017-05-18T18:55:56.115Z,4.65
2017-05-18T18:56:53.086Z,4.78
2017-05-18T18:57:50.479Z,5.67
2017-05-18T18:58:47.469Z,4.72
2017-05-18T18:59:44.426Z,4.68
2017-05-18T19:00:41.416Z,4.82
2017-05-18T19:01:38.372Z,4.85
2017-05-18T19:02:35.334Z,5.25
2017-05-18T19:03:32.288Z,4.80
2017-05-18T19:04:29.262Z,5.47
2017-05-18T19:05:26.211Z,5.38
2017-05-18T19:06:23.179Z,5.55
2017-05-18T19:07:20.163Z,5.75
2017-05-18T19:08:17.130Z,5.18
2017-05-18T19:09:14.078Z,5.08
2017-05-18T19:10:11.046Z,5.58
2017-05-18T19:11:08.007Z,4.73
2017-05-18T19:12:04.963Z,5.33
2017-05-18T19:13:01.916Z,5.27
2017-05-18T19:13:58.882Z,5.57
2017-05-18T19:14:55.858Z,5.37
2017-05-18T19:15:52.847Z,5.02
2017-05-18T19:16:49.798Z,4.97
2017-05-18T19:17:46.752Z,5.02
2017-05-18T19:18:43.714Z,5.37
2017-05-18T19:19:40.677Z,5.25
2017-05-18T19:20:37.650Z,5.38
2017-05-18T19:21:34.633Z,4.88
2017-05-18T19:22:31.591Z,5.17
2017-05-18T19:23:28.547Z,5.43
2017-05-18T19:24:25.512Z,5.45
2017-05-18T19:25:22.478Z,4.85
2017-05-18T19:26:19.458Z,5.45
2017-05-18T19:27:16.431Z,5.20
2017-05-18T19:28:13.386Z,5.83
2017-05-18T19:29:10.342Z,5.23
2017-05-18T19:30:07.304Z,5.52
2017-05-18T19:31:04.272Z,5.82
2017-05-18T19:32:01.241Z,4.98
2017-05-18T19:32:58.239Z,5.37
2017-05-18T19:33:55.195Z,5.27
2017-05-18T19:34:52.168Z,5.02
2017-05-18T19:35:49.128Z,5.10
2017-05-18T19:36:46.091Z,5.28
2017-05-18T19:37:43.055Z,5.57
2017-05-18T19:38:40.035Z,5.13
2017-05-18T19:39:36.987Z,5.22
2017-05-18T19:40:33.956Z,4.75
2017-05-18T19:41:30.933Z,5.62
2017-05-18T19:42:27.899Z,5.67
2017-05-18T19:43:24.881Z,5.53
2017-05-18T19:44:21.890Z,5.35
2017-05-18T19:45:18.873Z,5.70
2017-05-18T19:46:15.838Z,5.35
2017-05-18T19:47:12.810Z,5.57
2017-05-18T19:48:09.781Z,5.70
2017-05-18T19:49:06.768Z,5.10
2017-05-18T19:50:03.758Z,5.37
2017-05-18T19:51:00.736Z,5.45
2017-05-18T19:51:57.699Z,5.93
2017-05-18T19:52:54.681Z,5.53
2017-05-18T19:53:51.626Z,5.12
2017-05-18T19:54:49.202Z,5.20
2017-05-18T19:55:46.175Z,5.67
2017-05-18T19:56:43.139Z,5.38
2017-05-18T19:57:40.330Z,5.33
2017-05-18T19:58:37.302Z,5.78
2017-05-18T19:59:34.258Z,5.23
2017-05-18T20:00:31.214Z,5.63
2017-05-18T20:01:28.194Z,5.48
2017-05-18T20:02:25.160Z,5.47
2017-05-18T20:03:22.109Z,5.98
2017-05-18T20:04:19.078Z,5.98
2017-05-18T20:05:16.026Z,6.48
2017-05-18T20:06:13.003Z,5.77
2017-05-18T20:07:09.983Z,5.58
2017-05-18T20:08:06.942Z,5.58
2017-05-18T20:09:03.925Z,5.90
2017-05-18T20:10:00.884Z,5.95
2017-05-18T20:10:57.842Z,6.10
2017-05-18T20:11:54.808Z,6.32
2017-05-18T20:12:51.778Z,6.32
2017-05-18T20:13:48.741Z,6.25
2017-05-18T20:14:45.701Z,6.18
2017-05-18T20:15:42.656Z,5.70
2017-05-18T20:16:39.617Z,5.57
2017-05-18T20:17:36.593Z,6.30
2017-05-18T20:18:33.592Z,5.62
2017-05-18T20:19:30.546Z,6.02
2017-05-18T20:20:27.508Z,5.92
2017-05-18T20:21:24.504Z,5.72
2017-05-18T20:22:21.456Z,5.87
2017-05-18T20:23:18.420Z,6.20
2017-05-18T20:24:15.399Z,5.87
2017-05-18T20:25:12.364Z,5.88
2017-05-18T20:26:09.316Z,5.82
2017-05-18T20:27:06.289Z,6.07
2017-05-18T20:28:03.243Z,5.87
2017-05-18T20:29:00.194Z,6.25
2017-05-18T20:29:57.175Z,6.33
2017-05-18T20:30:54.142Z,6.10
2017-05-18T20:31:51.117Z,6.33
2017-05-18T20:32:48.240Z,6.80
2017-05-18T20:33:45.188Z,7.07
2017-05-18T20:34:42.166Z,6.18
2017-05-18T20:35:39.138Z,6.05
2017-05-18T20:36:36.108Z,5.92
2017-05-18T20:37:33.107Z,5.97
2017-05-18T20:38:30.071Z,5.95
2017-05-18T20:39:27.022Z,6.72
2017-05-18T20:40:23.990Z,6.40
2017-05-18T20:41:20.990Z,6.00
2017-05-18T20:42:17.962Z,6.25
2017-05-18T20:43:14.920Z,6.50
2017-05-18T20:44:11.867Z,6.38
2017-05-18T20:45:08.853Z,6.33
2017-05-18T20:46:05.795Z,5.62
2017-05-18T20:47:02.773Z,6.00
2017-05-18T20:47:59.732Z,6.47
2017-05-18T20:48:56.690Z,5.88
2017-05-18T20:49:53.667Z,6.15
2017-05-18T20:50:50.624Z,6.28
2017-05-18T20:51:47.570Z,6.30
2017-05-18T20:52:44.553Z,6.65
2017-05-18T20:53:41.531Z,6.48
2017-05-18T20:54:39.233Z,6.30
2017-05-18T20:55:36.209Z,6.52
2017-05-18T20:56:33.155Z,6.13
2017-05-18T20:57:30.111Z,6.73
2017-05-18T20:58:27.080Z,6.12
2017-05-18T20:59:24.037Z,6.10
2017-05-18T21:00:20.995Z,7.42
2017-05-18T21:01:17.959Z,6.80
2017-05-18T21:02:14.917Z,6.27
2017-05-18T21:03:11.907Z,8.53
2017-05-18T21:04:08.908Z,24.58
2017-05-18T21:05:05.891Z,26.60
2017-05-18T21:06:02.855Z,23.97
2017-05-18T21:06:59.823Z,25.58
2017-05-18T21:07:56.789Z,26.00
2017-05-18T21:08:53.764Z,27.37
2017-05-18T21:09:50.776Z,25.45
2017-05-18T21:10:47.795Z,26.13
2017-05-18T21:11:44.783Z,26.50
2017-05-18T21:12:41.756Z,27.62
2017-05-18T21:13:38.712Z,29.13
2017-05-18T21:14:35.915Z,30.53
2017-05-18T21:15:32.920Z,30.60
2017-05-18T21:16:29.882Z,30.07
2017-05-18T21:17:26.842Z,30.28
2017-05-18T21:18:23.800Z,32.22
2017-05-18T21:19:20.787Z,28.57
2017-05-18T21:20:17.752Z,31.28
2017-05-18T21:21:14.730Z,31.43
2017-05-18T21:22:11.683Z,30.85
2017-05-18T21:23:08.646Z,29.68
2017-05-18T21:24:05.645Z,32.42
2017-05-18T21:25:02.587Z,29.75
2017-05-18T21:25:59.534Z,29.98
2017-05-18T21:26:56.506Z,29.80
2017-05-18T21:27:53.471Z,26.78
2017-05-18T21:28:50.642Z,31.52
2017-05-18T21:29:47.615Z,28.67
2017-05-18T21:30:44.581Z,31.13
2017-05-18T21:31:41.528Z,31.53
2017-05-18T21:32:38.528Z,31.73
2017-05-18T21:33:35.483Z,31.25
2017-05-18T21:34:32.447Z,30.62
2017-05-18T21:35:29.394Z,31.50
2017-05-18T21:36:26.366Z,31.87
2017-05-18T21:37:23.323Z,31.48
2017-05-18T21:38:20.316Z,30.62
2017-05-18T21:39:17.272Z,28.93
2017-05-18T21:40:14.227Z,29.13
2017-05-18T21:41:11.243Z,30.85
2017-05-18T21:42:08.211Z,31.08
2017-05-18T21:43:05.297Z,27.90
2017-05-18T21:44:02.323Z,33.03
2017-05-18T21:44:59.280Z,30.40
2017-05-18T21:45:56.230Z,30.83
2017-05-18T21:46:53.227Z,33.28
2017-05-18T21:47:50.191Z,31.68
2017-05-18T21:48:47.152Z,32.58
2017-05-18T21:49:44.134Z,34.98
2017-05-18T21:50:41.098Z,31.25
2017-05-18T21:51:38.047Z,32.28
2017-05-18T21:52:35.004Z,32.35
2017-05-18T21:53:31.959Z,31.15
2017-05-18T21:54:28.919Z,30.65
2017-05-18T21:55:25.885Z,31.90
2017-05-18T21:56:22.851Z,30.17
2017-05-18T21:57:19.803Z,31.52
2017-05-18T21:58:16.758Z,28.40
2017-05-18T21:59:13.718Z,31.15
2017-05-18T22:00:10.685Z,32.78
2017-05-18T22:01:07.905Z,29.47
2017-05-18T22:02:04.851Z,27.97
2017-05-18T22:03:01.811Z,28.63
2017-05-18T22:03:58.778Z,29.32
2017-05-18T22:04:55.752Z,28.78
2017-05-18T22:05:52.718Z,30.22
2017-05-18T22:06:49.695Z,30.45
2017-05-18T22:07:46.655Z,29.40
2017-05-18T22:08:43.617Z,29.30
2017-05-18T22:09:40.582Z,28.32
2017-05-18T22:10:37.547Z,28.78
2017-05-18T22:11:34.497Z,27.88
2017-05-18T22:12:31.479Z,29.67
2017-05-18T22:13:28.446Z,29.77
2017-05-18T22:14:25.418Z,26.60
2017-05-18T22:15:22.376Z,27.43
2017-05-18T22:16:19.340Z,28.90
2017-05-18T22:17:16.290Z,26.18
2017-05-18T22:18:13.255Z,24.20
2017-05-18T22:19:10.220Z,26.00
2017-05-18T22:20:07.184Z,28.03
2017-05-18T22:21:04.139Z,27.42
2017-05-18T22:22:01.095Z,25.98
2017-05-18T22:22:58.070Z,25.73
2017-05-18T22:23:55.063Z,24.02
2017-05-18T22:24:52.022Z,22.80
2017-05-18T22:25:48.985Z,24.43
2017-05-18T22:26:45.951Z,23.88
2017-05-18T22:27:42.904Z,25.18
2017-05-18T22:28:39.871Z,22.85
2017-05-18T22:29:36.842Z,22.38
2017-05-18T22:30:33.807Z,22.13
2017-05-18T22:31:30.771Z,20.97
2017-05-18T22:32:27.727Z,22.45
2017-05-18T22:33:24.690Z,21.98
2017-05-18T22:34:21.652Z,23.33
2017-05-18T22:35:18.619Z,22.83
2017-05-18T22:36:15.706Z,21.67
2017-05-18T22:37:12.661Z,21.17
2017-05-18T22:38:09.616Z,21.17
2017-05-18T22:39:06.598Z,20.52
2017-05-18T22:40:03.775Z,20.05
2017-05-18T22:41:00.751Z,20.12
2017-05-18T22:41:57.915Z,18.00
2017-05-18T22:42:54.869Z,19.28
2017-05-18T22:43:51.842Z,18.93
2017-05-18T22:44:48.804Z,19.40
2017-05-18T22:45:45.772Z,20.15
2017-05-18T22:46:42.735Z,18.83
2017-05-18T22:47:39.695Z,18.55
2017-05-18T22:48:36.649Z,16.30
2017-05-18T22:49:33.616Z,16.53
2017-05-18T22:50:30.584Z,17.50
2017-05-18T22:51:27.555Z,17.02
2017-05-18T22:52:24.588Z,16.37
2017-05-18T22:53:21.494Z,16.78
2017-05-18T22:54:18.457Z,17.07
2017-05-18T22:55:15.424Z,14.65
2017-05-18T22:56:12.373Z,15.63
2017-05-18T22:57:09.325Z,15.25
2017-05-18T22:58:06.305Z,15.92
2017-05-18T22:59:03.254Z,15.70
2017-05-18T23:00:00.215Z,15.47
2017-05-18T23:00:57.175Z,14.87
2017-05-18T23:01:54.153Z,14.52
2017-05-18T23:02:51.289Z,14.30
2017-05-18T23:03:48.269Z,15.27
2017-05-18T23:04:45.220Z,15.15
2017-05-18T23:05:42.171Z,14.93
2017-05-18T23:06:39.139Z,15.48
2017-05-18T23:07:36.091Z,14.20
2017-05-18T23:08:33.049Z,13.93
2017-05-18T23:09:30.022Z,14.43
2017-05-18T23:10:26.974Z,13.80
2017-05-18T23:11:23.930Z,13.23
2017-05-18T23:12:20.886Z,13.38
2017-05-18T23:13:17.851Z,13.72
2017-05-18T23:14:14.815Z,14.63
2017-05-18T23:15:11.796Z,12.65
2017-05-18T23:16:08.948Z,13.23
2017-05-18T23:17:05.901Z,13.50
2017-05-18T23:18:02.873Z,13.85
2017-05-18T23:18:59.836Z,12.90
2017-05-18T23:19:56.803Z,13.68
2017-05-18T23:20:53.783Z,12.87
2017-05-18T23:21:50.741Z,13.52
2017-05-18T23:22:47.790Z,12.72
2017-05-18T23:23:44.768Z,13.17
2017-05-18T23:24:41.720Z,12.18
2017-05-18T23:25:38.678Z,13.73
2017-05-18T23:26:35.649Z,13.00
2017-05-18T23:27:32.614Z,12.97
2017-05-18T23:28:29.574Z,13.38
2017-05-18T23:29:26.535Z,13.63
2017-05-18T23:30:23.490Z,13.27
2017-05-18T23:31:20.445Z,11.57
2017-05-18T23:32:17.427Z,13.75
2017-05-18T23:33:14.375Z,12.83
2017-05-18T23:34:11.326Z,12.38
2017-05-18T23:35:08.287Z,13.57
2017-05-18T23:36:05.241Z,13.03
2017-05-18T23:37:02.203Z,13.08
2017-05-18T23:37:59.192Z,13.37
2017-05-18T23:38:56.148Z,13.00
2017-05-18T23:39:53.095Z,13.83
2017-05-18T23:40:50.338Z,12.28
2017-05-18T23:41:47.300Z,12.48
2017-05-18T23:42:44.275Z,11.53
2017-05-18T23:43:41.246Z,13.72
2017-05-18T23:44:38.215Z,12.27
2017-05-18T23:45:35.168Z,12.97
2017-05-18T23:46:32.125Z,13.40
2017-05-18T23:47:29.094Z,13.67
2017-05-18T23:48:26.046Z,12.93
2017-05-18T23:49:23.023Z,12.67
2017-05-18T23:50:19.974Z,13.50
2017-05-18T23:51:16.931Z,14.75
2017-05-18T23:52:14.075Z,14.00
2017-05-18T23:53:11.034Z,13.83
2017-05-18T23:54:07.982Z,13.68
2017-05-18T23:55:04.966Z,13.83
2017-05-18T23:56:01.917Z,14.55
2017-05-18T23:56:58.886Z,13.85
2017-05-18T23:57:55.841Z,15.28
2017-05-18T23:58:52.792Z,13.23
2017-05-18T23:59:49.744Z,15.10
